sensor_id;sensor_type;location;lat;lon;timestamp;temperature;humidity
66337;SHT30;53139;45.576;5.304;2022-07-22T00:01:26;19.97;66.10
66337;SHT30;53139;45.576;5.304;2022-07-22T00:04:26;19.78;66.74
66337;SHT30;53139;45.576;5.304;2022-07-22T00:07:27;19.75;66.67
66337;SHT30;53139;45.576;5.304;2022-07-22T00:10:27;19.63;67.36
66337;SHT30;53139;45.576;5.304;2022-07-22T00:13:28;19.53;67.59
66337;SHT30;53139;45.576;5.304;2022-07-22T00:16:28;19.40;67.58
66337;SHT30;53139;45.576;5.304;2022-07-22T00:19:29;19.42;67.62
66337;SHT30;53139;45.576;5.304;2022-07-22T00:22:29;19.47;67.60
66337;SHT30;53139;45.576;5.304;2022-07-22T00:25:29;19.25;68.52
66337;SHT30;53139;45.576;5.304;2022-07-22T00:28:30;19.38;68.20
66337;SHT30;53139;45.576;5.304;2022-07-22T00:31:30;19.09;68.86
66337;SHT30;53139;45.576;5.304;2022-07-22T00:34:31;19.09;68.91
66337;SHT30;53139;45.576;5.304;2022-07-22T00:37:31;19.04;69.09
66337;SHT30;53139;45.576;5.304;2022-07-22T00:40:31;18.83;70.02
66337;SHT30;53139;45.576;5.304;2022-07-22T00:43:51;19.25;68.68
66337;SHT30;53139;45.576;5.304;2022-07-22T00:46:52;19.20;68.89
66337;SHT30;53139;45.576;5.304;2022-07-22T00:49:52;19.18;68.62
66337;SHT30;53139;45.576;5.304;2022-07-22T00:52:53;19.15;68.91
66337;SHT30;53139;45.576;5.304;2022-07-22T00:55:53;19.09;68.84
66337;SHT30;53139;45.576;5.304;2022-07-22T00:58:57;19.02;69.16
66337;SHT30;53139;45.576;5.304;2022-07-22T01:01:57;18.97;69.22
66337;SHT30;53139;45.576;5.304;2022-07-22T01:04:58;18.94;69.26
66337;SHT30;53139;45.576;5.304;2022-07-22T01:07:58;18.91;69.35
66337;SHT30;53139;45.576;5.304;2022-07-22T01:11:13;18.59;70.26
66337;SHT30;53139;45.576;5.304;2022-07-22T01:14:14;18.63;70.28
66337;SHT30;53139;45.576;5.304;2022-07-22T01:17:14;19.04;69.05
66337;SHT30;53139;45.576;5.304;2022-07-22T01:20:15;18.91;69.59
66337;SHT30;53139;45.576;5.304;2022-07-22T01:23:15;18.68;69.92
66337;SHT30;53139;45.576;5.304;2022-07-22T01:26:16;18.49;70.89
66337;SHT30;53139;45.576;5.304;2022-07-22T01:29:17;18.56;70.80
66337;SHT30;53139;45.576;5.304;2022-07-22T01:32:17;18.57;70.31
66337;SHT30;53139;45.576;5.304;2022-07-22T01:35:18;18.36;70.89
66337;SHT30;53139;45.576;5.304;2022-07-22T01:38:19;18.50;69.89
66337;SHT30;53139;45.576;5.304;2022-07-22T01:41:19;18.32;70.55
66337;SHT30;53139;45.576;5.304;2022-07-22T01:44:20;18.16;71.49
66337;SHT30;53139;45.576;5.304;2022-07-22T01:47:20;18.24;70.96
66337;SHT30;53139;45.576;5.304;2022-07-22T01:50:20;18.30;71.13
66337;SHT30;53139;45.576;5.304;2022-07-22T01:53:21;18.16;71.16
66337;SHT30;53139;45.576;5.304;2022-07-22T01:56:21;17.74;72.87
66337;SHT30;53139;45.576;5.304;2022-07-22T01:59:21;17.90;72.34
66337;SHT30;53139;45.576;5.304;2022-07-22T02:02:22;17.90;72.32
66337;SHT30;53139;45.576;5.304;2022-07-22T02:05:23;17.95;71.86
66337;SHT30;53139;45.576;5.304;2022-07-22T02:08:23;17.59;73.40
66337;SHT30;53139;45.576;5.304;2022-07-22T02:11:23;17.90;71.94
66337;SHT30;53139;45.576;5.304;2022-07-22T02:14:24;18.00;72.30
66337;SHT30;53139;45.576;5.304;2022-07-22T02:17:25;18.09;71.67
66337;SHT30;53139;45.576;5.304;2022-07-22T02:20:25;17.70;72.95
66337;SHT30;53139;45.576;5.304;2022-07-22T02:23:25;17.75;72.84
66337;SHT30;53139;45.576;5.304;2022-07-22T02:26:26;17.71;72.95
66337;SHT30;53139;45.576;5.304;2022-07-22T02:29:26;17.77;72.78
66337;SHT30;53139;45.576;5.304;2022-07-22T02:32:27;17.51;73.98
66337;SHT30;53139;45.576;5.304;2022-07-22T02:35:27;17.91;72.43
66337;SHT30;53139;45.576;5.304;2022-07-22T02:38:27;17.90;72.51
66337;SHT30;53139;45.576;5.304;2022-07-22T02:41:28;17.77;72.33
66337;SHT30;53139;45.576;5.304;2022-07-22T02:44:28;17.95;72.56
66337;SHT30;53139;45.576;5.304;2022-07-22T02:47:29;17.59;72.80
66337;SHT30;53139;45.576;5.304;2022-07-22T02:50:29;17.40;73.79
66337;SHT30;53139;45.576;5.304;2022-07-22T02:53:30;17.36;74.04
66337;SHT30;53139;45.576;5.304;2022-07-22T02:56:31;17.63;73.10
66337;SHT30;53139;45.576;5.304;2022-07-22T02:59:31;17.37;73.99
66337;SHT30;53139;45.576;5.304;2022-07-22T03:02:31;17.33;74.18
66337;SHT30;53139;45.576;5.304;2022-07-22T03:05:32;17.42;73.95
66337;SHT30;53139;45.576;5.304;2022-07-22T03:08:32;17.51;73.09
66337;SHT30;53139;45.576;5.304;2022-07-22T03:11:33;17.62;73.13
66337;SHT30;53139;45.576;5.304;2022-07-22T03:14:33;17.02;74.70
66337;SHT30;53139;45.576;5.304;2022-07-22T03:17:35;17.30;73.88
66337;SHT30;53139;45.576;5.304;2022-07-22T03:20:36;17.35;74.26
66337;SHT30;53139;45.576;5.304;2022-07-22T03:23:36;17.12;74.68
66337;SHT30;53139;45.576;5.304;2022-07-22T03:26:37;17.07;74.96
66337;SHT30;53139;45.576;5.304;2022-07-22T03:29:37;17.09;74.64
66337;SHT30;53139;45.576;5.304;2022-07-22T03:32:37;16.77;75.95
66337;SHT30;53139;45.576;5.304;2022-07-22T03:35:38;17.04;74.75
66337;SHT30;53139;45.576;5.304;2022-07-22T03:38:38;16.92;75.47
66337;SHT30;53139;45.576;5.304;2022-07-22T03:41:38;17.07;74.54
66337;SHT30;53139;45.576;5.304;2022-07-22T03:44:39;16.82;75.56
66337;SHT30;53139;45.576;5.304;2022-07-22T03:47:41;17.28;74.49
66337;SHT30;53139;45.576;5.304;2022-07-22T03:50:41;17.28;74.07
66337;SHT30;53139;45.576;5.304;2022-07-22T03:53:42;17.18;74.22
66337;SHT30;53139;45.576;5.304;2022-07-22T03:56:42;16.92;75.05
66337;SHT30;53139;45.576;5.304;2022-07-22T03:59:42;16.98;74.90
66337;SHT30;53139;45.576;5.304;2022-07-22T04:02:43;17.04;75.20
66337;SHT30;53139;45.576;5.304;2022-07-22T04:05:43;16.85;75.95
66337;SHT30;53139;45.576;5.304;2022-07-22T04:08:44;17.32;74.29
66337;SHT30;53139;45.576;5.304;2022-07-22T04:11:44;17.15;74.84
66337;SHT30;53139;45.576;5.304;2022-07-22T04:14:45;16.87;75.67
66337;SHT30;53139;45.576;5.304;2022-07-22T04:17:45;17.23;74.52
66337;SHT30;53139;45.576;5.304;2022-07-22T04:20:45;17.25;74.69
66337;SHT30;53139;45.576;5.304;2022-07-22T04:23:46;16.99;75.08
66337;SHT30;53139;45.576;5.304;2022-07-22T04:26:47;16.84;75.67
66337;SHT30;53139;45.576;5.304;2022-07-22T04:29:47;16.75;75.93
66337;SHT30;53139;45.576;5.304;2022-07-22T04:32:48;16.70;76.75
66337;SHT30;53139;45.576;5.304;2022-07-22T04:35:48;16.68;76.65
66337;SHT30;53139;45.576;5.304;2022-07-22T04:38:48;16.85;76.47
66337;SHT30;53139;45.576;5.304;2022-07-22T04:41:49;16.99;75.63
66337;SHT30;53139;45.576;5.304;2022-07-22T04:44:50;16.87;75.62
66337;SHT30;53139;45.576;5.304;2022-07-22T04:47:50;16.98;75.72
66337;SHT30;53139;45.576;5.304;2022-07-22T04:50:50;16.87;75.64
66337;SHT30;53139;45.576;5.304;2022-07-22T04:53:51;16.85;75.61
66337;SHT30;53139;45.576;5.304;2022-07-22T04:56:51;16.92;75.84
66337;SHT30;53139;45.576;5.304;2022-07-22T04:59:52;16.89;75.93
66337;SHT30;53139;45.576;5.304;2022-07-22T05:02:53;16.89;75.98
66337;SHT30;53139;45.576;5.304;2022-07-22T05:05:54;17.02;75.50
66337;SHT30;53139;45.576;5.304;2022-07-22T05:08:54;17.02;75.76
66337;SHT30;53139;45.576;5.304;2022-07-22T05:11:55;17.11;75.27
66337;SHT30;53139;45.576;5.304;2022-07-22T05:14:55;17.12;75.09
66337;SHT30;53139;45.576;5.304;2022-07-22T05:17:55;17.22;74.63
66337;SHT30;53139;45.576;5.304;2022-07-22T05:20:56;17.35;74.69
66337;SHT30;53139;45.576;5.304;2022-07-22T05:23:56;17.50;74.64
66337;SHT30;53139;45.576;5.304;2022-07-22T05:26:57;17.63;73.90
66337;SHT30;53139;45.576;5.304;2022-07-22T05:29:57;17.73;73.93
66337;SHT30;53139;45.576;5.304;2022-07-22T05:32:57;17.83;73.87
66337;SHT30;53139;45.576;5.304;2022-07-22T05:35:59;17.92;73.79
66337;SHT30;53139;45.576;5.304;2022-07-22T05:38:59;18.15;72.56
66337;SHT30;53139;45.576;5.304;2022-07-22T05:41:59;18.45;72.42
66337;SHT30;53139;45.576;5.304;2022-07-22T05:45:00;18.29;72.86
66337;SHT30;53139;45.576;5.304;2022-07-22T05:48:00;18.56;72.23
66337;SHT30;53139;45.576;5.304;2022-07-22T05:51:01;18.52;72.52
66337;SHT30;53139;45.576;5.304;2022-07-22T05:54:01;18.61;72.43
66337;SHT30;53139;45.576;5.304;2022-07-22T05:57:02;18.88;72.24
66337;SHT30;53139;45.576;5.304;2022-07-22T06:00:04;18.94;72.06
66337;SHT30;53139;45.576;5.304;2022-07-22T06:03:05;19.16;71.49
66337;SHT30;53139;45.576;5.304;2022-07-22T06:06:05;19.16;71.27
66337;SHT30;53139;45.576;5.304;2022-07-22T06:09:08;19.26;71.39
66337;SHT30;53139;45.576;5.304;2022-07-22T06:12:08;19.38;70.65
66337;SHT30;53139;45.576;5.304;2022-07-22T06:15:09;19.52;70.46
66337;SHT30;53139;45.576;5.304;2022-07-22T06:18:10;19.66;70.66
66337;SHT30;53139;45.576;5.304;2022-07-22T06:21:11;19.98;70.09
66337;SHT30;53139;45.576;5.304;2022-07-22T06:24:11;20.08;69.76
66337;SHT30;53139;45.576;5.304;2022-07-22T06:27:12;20.30;69.65
66337;SHT30;53139;45.576;5.304;2022-07-22T06:30:12;20.28;69.59
66337;SHT30;53139;45.576;5.304;2022-07-22T06:33:13;20.59;68.92
66337;SHT30;53139;45.576;5.304;2022-07-22T06:36:13;20.64;69.03
66337;SHT30;53139;45.576;5.304;2022-07-22T06:39:15;20.57;68.44
66337;SHT30;53139;45.576;5.304;2022-07-22T06:42:15;20.84;68.13
66337;SHT30;53139;45.576;5.304;2022-07-22T06:45:15;21.21;67.95
66337;SHT30;53139;45.576;5.304;2022-07-22T06:48:16;21.24;67.55
66337;SHT30;53139;45.576;5.304;2022-07-22T06:51:16;21.35;67.27
66337;SHT30;53139;45.576;5.304;2022-07-22T06:54:17;21.55;67.09
66337;SHT30;53139;45.576;5.304;2022-07-22T06:57:17;21.79;65.90
66337;SHT30;53139;45.576;5.304;2022-07-22T07:00:17;21.79;65.93
66337;SHT30;53139;45.576;5.304;2022-07-22T07:03:18;22.15;66.28
66337;SHT30;53139;45.576;5.304;2022-07-22T07:06:19;22.14;66.04
66337;SHT30;53139;45.576;5.304;2022-07-22T07:09:20;22.32;65.37
66337;SHT30;53139;45.576;5.304;2022-07-22T07:12:20;22.34;65.00
66337;SHT30;53139;45.576;5.304;2022-07-22T07:15:21;22.74;63.86
66337;SHT30;53139;45.576;5.304;2022-07-22T07:18:21;22.82;63.54
66337;SHT30;53139;45.576;5.304;2022-07-22T07:21:21;23.03;63.18
66337;SHT30;53139;45.576;5.304;2022-07-22T07:24:22;23.08;62.25
66337;SHT30;53139;45.576;5.304;2022-07-22T09:30:06;32.49;40.77
66337;SHT30;53139;45.576;5.304;2022-07-22T09:33:08;32.74;40.99
66337;SHT30;53139;45.576;5.304;2022-07-22T09:36:08;34.68;38.84
66337;SHT30;53139;45.576;5.304;2022-07-22T09:39:29;34.23;38.38
66337;SHT30;53139;45.576;5.304;2022-07-22T09:42:43;34.75;37.67
66337;SHT30;53139;45.576;5.304;2022-07-22T09:48:54;35.17;37.38
66337;SHT30;53139;45.576;5.304;2022-07-22T09:51:54;36.32;35.74
66337;SHT30;53139;45.576;5.304;2022-07-22T09:54:56;36.05;36.34
66337;SHT30;53139;45.576;5.304;2022-07-22T09:58:55;34.55;39.11
66337;SHT30;53139;45.576;5.304;2022-07-22T10:01:58;35.16;37.39
66337;SHT30;53139;45.576;5.304;2022-07-22T10:04:59;35.86;37.49
66337;SHT30;53139;45.576;5.304;2022-07-22T10:08:01;35.35;36.29
66337;SHT30;53139;45.576;5.304;2022-07-22T10:11:05;35.65;36.29
66337;SHT30;53139;45.576;5.304;2022-07-22T10:14:07;37.11;37.09
66337;SHT30;53139;45.576;5.304;2022-07-22T10:17:08;36.64;34.78
66337;SHT30;53139;45.576;5.304;2022-07-22T10:20:10;35.93;35.27
66337;SHT30;53139;45.576;5.304;2022-07-22T10:23:11;36.81;34.64
66337;SHT30;53139;45.576;5.304;2022-07-22T10:26:12;37.96;34.28
66337;SHT30;53139;45.576;5.304;2022-07-22T10:32:38;39.45;32.78
66337;SHT30;53139;45.576;5.304;2022-07-22T10:35:59;39.59;33.32
66337;SHT30;53139;45.576;5.304;2022-07-22T10:39:07;37.60;32.61
66337;SHT30;53139;45.576;5.304;2022-07-22T10:42:08;37.59;31.13
66337;SHT30;53139;45.576;5.304;2022-07-22T10:45:09;38.73;30.72
66337;SHT30;53139;45.576;5.304;2022-07-22T10:48:24;36.29;29.20
66337;SHT30;53139;45.576;5.304;2022-07-22T10:51:24;36.23;29.43
66337;SHT30;53139;45.576;5.304;2022-07-22T10:54:26;36.33;29.71
66337;SHT30;53139;45.576;5.304;2022-07-22T10:57:33;37.27;30.08
66337;SHT30;53139;45.576;5.304;2022-07-22T11:00:33;37.88;27.93
66337;SHT30;53139;45.576;5.304;2022-07-22T11:03:38;37.30;27.86
66337;SHT30;53139;45.576;5.304;2022-07-22T11:06:39;38.31;28.50
66337;SHT30;53139;45.576;5.304;2022-07-22T11:09:39;38.57;28.69
66337;SHT30;53139;45.576;5.304;2022-07-22T11:12:40;38.00;27.97
66337;SHT30;53139;45.576;5.304;2022-07-22T11:15:40;37.96;28.20
66337;SHT30;53139;45.576;5.304;2022-07-22T11:18:56;36.45;29.42
66337;SHT30;53139;45.576;5.304;2022-07-22T11:22:02;37.57;28.23
66337;SHT30;53139;45.576;5.304;2022-07-22T11:25:07;37.96;28.32
66337;SHT30;53139;45.576;5.304;2022-07-22T11:28:07;38.56;28.62
66337;SHT30;53139;45.576;5.304;2022-07-22T11:31:09;38.43;28.17
66337;SHT30;53139;45.576;5.304;2022-07-22T11:34:15;38.53;28.12
66337;SHT30;53139;45.576;5.304;2022-07-22T11:37:18;37.84;27.91
66337;SHT30;53139;45.576;5.304;2022-07-22T11:40:19;39.14;27.98
66337;SHT30;53139;45.576;5.304;2022-07-22T11:43:19;38.43;27.86
66337;SHT30;53139;45.576;5.304;2022-07-22T11:46:19;38.70;27.08
66337;SHT30;53139;45.576;5.304;2022-07-22T11:49:21;38.59;26.12
66337;SHT30;53139;45.576;5.304;2022-07-22T11:52:21;39.50;27.41
66337;SHT30;53139;45.576;5.304;2022-07-22T11:55:22;39.55;26.15
66337;SHT30;53139;45.576;5.304;2022-07-22T11:58:36;39.38;26.50
66337;SHT30;53139;45.576;5.304;2022-07-22T12:01:37;40.28;26.50
66337;SHT30;53139;45.576;5.304;2022-07-22T12:04:38;39.97;25.81
66337;SHT30;53139;45.576;5.304;2022-07-22T12:07:38;39.62;25.66
66337;SHT30;53139;45.576;5.304;2022-07-22T12:10:39;39.21;26.27
66337;SHT30;53139;45.576;5.304;2022-07-22T12:13:44;39.94;26.97
66337;SHT30;53139;45.576;5.304;2022-07-22T12:16:58;40.87;25.14
66337;SHT30;53139;45.576;5.304;2022-07-22T12:20:10;41.00;24.07
66337;SHT30;53139;45.576;5.304;2022-07-22T12:23:15;39.84;25.68
66337;SHT30;53139;45.576;5.304;2022-07-22T12:26:16;41.00;24.91
66337;SHT30;53139;45.576;5.304;2022-07-22T12:29:24;39.73;25.95
66337;SHT30;53139;45.576;5.304;2022-07-22T12:32:28;40.21;25.28
66337;SHT30;53139;45.576;5.304;2022-07-22T12:35:29;39.01;26.10
66337;SHT30;53139;45.576;5.304;2022-07-22T12:38:30;40.10;25.43
66337;SHT30;53139;45.576;5.304;2022-07-22T12:41:30;39.60;25.16
66337;SHT30;53139;45.576;5.304;2022-07-22T12:44:30;40.96;25.80
66337;SHT30;53139;45.576;5.304;2022-07-22T12:47:53;39.39;25.30
66337;SHT30;53139;45.576;5.304;2022-07-22T12:50:57;41.20;24.12
66337;SHT30;53139;45.576;5.304;2022-07-22T12:53:58;39.39;25.68
66337;SHT30;53139;45.576;5.304;2022-07-22T12:57:01;40.04;25.19
66337;SHT30;53139;45.576;5.304;2022-07-22T13:00:02;42.06;23.77
66337;SHT30;53139;45.576;5.304;2022-07-22T13:03:03;42.71;23.53
66337;SHT30;53139;45.576;5.304;2022-07-22T13:06:04;39.66;23.92
66337;SHT30;53139;45.576;5.304;2022-07-22T13:09:05;40.59;23.33
66337;SHT30;53139;45.576;5.304;2022-07-22T13:12:06;40.80;22.62
66337;SHT30;53139;45.576;5.304;2022-07-22T13:15:07;39.66;22.87
66337;SHT30;53139;45.576;5.304;2022-07-22T13:18:08;39.58;22.62
66337;SHT30;53139;45.576;5.304;2022-07-22T13:21:08;41.69;23.23
66337;SHT30;53139;45.576;5.304;2022-07-22T13:24:09;42.33;20.30
66337;SHT30;53139;45.576;5.304;2022-07-22T13:27:09;42.06;20.94
66337;SHT30;53139;45.576;5.304;2022-07-22T13:30:10;43.27;21.93
66337;SHT30;53139;45.576;5.304;2022-07-22T13:33:11;43.98;21.07
66337;SHT30;53139;45.576;5.304;2022-07-22T13:36:11;42.19;21.97
66337;SHT30;53139;45.576;5.304;2022-07-22T13:39:11;42.10;21.68
66337;SHT30;53139;45.576;5.304;2022-07-22T13:42:12;40.39;18.92
66337;SHT30;53139;45.576;5.304;2022-07-22T13:45:13;42.40;19.73
66337;SHT30;53139;45.576;5.304;2022-07-22T13:48:14;42.58;18.75
66337;SHT30;53139;45.576;5.304;2022-07-22T13:51:19;42.48;19.50
66337;SHT30;53139;45.576;5.304;2022-07-22T13:54:20;41.59;18.50
66337;SHT30;53139;45.576;5.304;2022-07-22T13:57:23;41.52;18.72
66337;SHT30;53139;45.576;5.304;2022-07-22T14:00:24;40.70;19.68
66337;SHT30;53139;45.576;5.304;2022-07-22T14:03:27;40.34;19.26
66337;SHT30;53139;45.576;5.304;2022-07-22T14:06:27;40.10;19.63
66337;SHT30;53139;45.576;5.304;2022-07-22T14:09:28;42.12;19.68
66337;SHT30;53139;45.576;5.304;2022-07-22T14:12:31;42.78;18.13
66337;SHT30;53139;45.576;5.304;2022-07-22T14:15:31;41.85;19.05
66337;SHT30;53139;45.576;5.304;2022-07-22T14:18:32;43.48;18.36
66337;SHT30;53139;45.576;5.304;2022-07-22T14:21:33;43.12;16.93
66337;SHT30;53139;45.576;5.304;2022-07-22T14:24:34;43.96;17.73
66337;SHT30;53139;45.576;5.304;2022-07-22T14:27:34;43.92;16.29
66337;SHT30;53139;45.576;5.304;2022-07-22T14:30:35;43.07;18.18
66337;SHT30;53139;45.576;5.304;2022-07-22T14:33:36;43.14;16.57
66337;SHT30;53139;45.576;5.304;2022-07-22T14:36:37;41.66;17.70
66337;SHT30;53139;45.576;5.304;2022-07-22T14:39:37;40.78;18.88
66337;SHT30;53139;45.576;5.304;2022-07-22T14:42:38;41.72;18.86
66337;SHT30;53139;45.576;5.304;2022-07-22T14:45:38;41.94;18.25
66337;SHT30;53139;45.576;5.304;2022-07-22T14:48:39;41.96;18.30
66337;SHT30;53139;45.576;5.304;2022-07-22T14:51:41;41.24;18.17
66337;SHT30;53139;45.576;5.304;2022-07-22T14:54:42;40.67;18.73
66337;SHT30;53139;45.576;5.304;2022-07-22T14:57:42;39.78;18.97
66337;SHT30;53139;45.576;5.304;2022-07-22T15:00:43;39.90;19.06
66337;SHT30;53139;45.576;5.304;2022-07-22T15:03:43;40.48;19.50
66337;SHT30;53139;45.576;5.304;2022-07-22T15:06:44;39.97;18.66
66337;SHT30;53139;45.576;5.304;2022-07-22T15:09:44;40.76;19.23
66337;SHT30;53139;45.576;5.304;2022-07-22T15:12:44;40.78;18.93
66337;SHT30;53139;45.576;5.304;2022-07-22T15:15:45;40.90;18.76
66337;SHT30;53139;45.576;5.304;2022-07-22T15:18:48;40.54;18.64
66337;SHT30;53139;45.576;5.304;2022-07-22T15:21:48;41.47;18.95
66337;SHT30;53139;45.576;5.304;2022-07-22T15:24:49;41.92;19.74
66337;SHT30;53139;45.576;5.304;2022-07-22T15:27:50;41.54;19.40
66337;SHT30;53139;45.576;5.304;2022-07-22T15:30:51;40.73;18.96
66337;SHT30;53139;45.576;5.304;2022-07-22T15:33:51;40.55;19.30
66337;SHT30;53139;45.576;5.304;2022-07-22T15:36:52;40.05;20.37
66337;SHT30;53139;45.576;5.304;2022-07-22T15:39:52;38.83;20.88
66337;SHT30;53139;45.576;5.304;2022-07-22T15:42:53;39.00;20.89
66337;SHT30;53139;45.576;5.304;2022-07-22T15:45:55;38.50;20.86
66337;SHT30;53139;45.576;5.304;2022-07-22T15:48:56;38.40;21.12
66337;SHT30;53139;45.576;5.304;2022-07-22T15:51:59;38.28;21.45
66337;SHT30;53139;45.576;5.304;2022-07-22T15:54:59;37.98;21.61
66337;SHT30;53139;45.576;5.304;2022-07-22T15:58:00;37.70;22.43
66337;SHT30;53139;45.576;5.304;2022-07-22T16:01:19;37.27;22.50
66337;SHT30;53139;45.576;5.304;2022-07-22T16:04:19;37.43;23.06
66337;SHT30;53139;45.576;5.304;2022-07-22T16:07:19;37.56;23.17
66337;SHT30;53139;45.576;5.304;2022-07-22T16:10:20;37.08;24.07
66337;SHT30;53139;45.576;5.304;2022-07-22T16:13:21;36.54;25.94
66337;SHT30;53139;45.576;5.304;2022-07-22T16:16:21;36.63;27.25
66337;SHT30;53139;45.576;5.304;2022-07-22T16:19:22;36.47;28.14
66337;SHT30;53139;45.576;5.304;2022-07-22T16:22:24;36.55;27.78
66337;SHT30;53139;45.576;5.304;2022-07-22T16:25:25;36.40;27.93
66337;SHT30;53139;45.576;5.304;2022-07-22T16:28:25;36.02;28.80
66337;SHT30;53139;45.576;5.304;2022-07-22T16:31:25;35.89;28.87
66337;SHT30;53139;45.576;5.304;2022-07-22T16:34:26;35.86;29.10
66337;SHT30;53139;45.576;5.304;2022-07-22T16:37:26;35.71;29.15
66337;SHT30;53139;45.576;5.304;2022-07-22T16:40:27;35.20;29.85
66337;SHT30;53139;45.576;5.304;2022-07-22T16:43:30;35.07;29.94
66337;SHT30;53139;45.576;5.304;2022-07-22T16:46:30;34.96;30.17
66337;SHT30;53139;45.576;5.304;2022-07-22T16:49:35;34.80;30.47
66337;SHT30;53139;45.576;5.304;2022-07-22T16:52:35;34.83;30.48
66337;SHT30;53139;45.576;5.304;2022-07-22T16:55:35;34.72;31.04
66337;SHT30;53139;45.576;5.304;2022-07-22T16:58:36;34.56;31.16
66337;SHT30;53139;45.576;5.304;2022-07-22T17:01:36;34.47;31.54
66337;SHT30;53139;45.576;5.304;2022-07-22T17:04:36;34.29;31.77
66337;SHT30;53139;45.576;5.304;2022-07-22T17:07:37;34.23;31.49
66337;SHT30;53139;45.576;5.304;2022-07-22T17:10:37;34.11;32.03
66337;SHT30;53139;45.576;5.304;2022-07-22T17:13:38;33.77;32.33
66337;SHT30;53139;45.576;5.304;2022-07-22T17:16:39;33.79;32.55
66337;SHT30;53139;45.576;5.304;2022-07-22T17:19:40;33.29;32.73
66337;SHT30;53139;45.576;5.304;2022-07-22T17:22:41;33.45;33.11
66337;SHT30;53139;45.576;5.304;2022-07-22T17:25:41;33.15;33.69
66337;SHT30;53139;45.576;5.304;2022-07-22T17:28:41;33.21;33.16
66337;SHT30;53139;45.576;5.304;2022-07-22T17:31:42;32.76;35.53
66337;SHT30;53139;45.576;5.304;2022-07-22T17:34:43;32.69;35.37
66337;SHT30;53139;45.576;5.304;2022-07-22T17:37:46;32.81;35.23
66337;SHT30;53139;45.576;5.304;2022-07-22T17:40:46;32.76;34.50
66337;SHT30;53139;45.576;5.304;2022-07-22T17:43:47;32.67;34.45
66337;SHT30;53139;45.576;5.304;2022-07-22T17:46:50;32.11;36.96
66337;SHT30;53139;45.576;5.304;2022-07-22T17:49:50;32.15;36.72
66337;SHT30;53139;45.576;5.304;2022-07-22T17:52:51;32.05;37.22
66337;SHT30;53139;45.576;5.304;2022-07-22T17:55:51;31.88;37.91
66337;SHT30;53139;45.576;5.304;2022-07-22T17:58:52;31.76;38.45
66337;SHT30;53139;45.576;5.304;2022-07-22T18:01:52;31.92;37.36
66337;SHT30;53139;45.576;5.304;2022-07-22T18:04:53;31.50;39.82
66337;SHT30;53139;45.576;5.304;2022-07-22T18:07:54;31.42;39.84
66337;SHT30;53139;45.576;5.304;2022-07-22T18:10:57;31.22;39.76
66337;SHT30;53139;45.576;5.304;2022-07-22T18:14:03;31.05;39.05
66337;SHT30;53139;45.576;5.304;2022-07-22T18:17:08;31.07;37.01
66337;SHT30;53139;45.576;5.304;2022-07-22T18:20:12;31.39;33.97
66337;SHT30;53139;45.576;5.304;2022-07-22T18:23:12;30.60;40.83
66337;SHT30;53139;45.576;5.304;2022-07-22T18:26:15;30.99;34.00
66337;SHT30;53139;45.576;5.304;2022-07-22T18:29:15;30.99;35.12
66337;SHT30;53139;45.576;5.304;2022-07-22T18:32:16;30.85;35.24
66337;SHT30;53139;45.576;5.304;2022-07-22T18:35:16;30.75;35.60
66337;SHT30;53139;45.576;5.304;2022-07-22T18:38:17;30.81;34.88
66337;SHT30;53139;45.576;5.304;2022-07-22T18:41:17;30.96;33.18
66337;SHT30;53139;45.576;5.304;2022-07-22T18:44:18;31.07;32.45
66337;SHT30;53139;45.576;5.304;2022-07-22T18:47:18;31.54;29.87
66337;SHT30;53139;45.576;5.304;2022-07-22T18:50:18;31.14;31.34
66337;SHT30;53139;45.576;5.304;2022-07-22T18:53:20;30.98;34.99
66337;SHT30;53139;45.576;5.304;2022-07-22T18:56:20;30.91;37.45
66337;SHT30;53139;45.576;5.304;2022-07-22T18:59:20;30.81;37.87
66337;SHT30;53139;45.576;5.304;2022-07-22T19:02:21;30.71;38.18
66337;SHT30;53139;45.576;5.304;2022-07-22T19:05:24;30.73;38.53
66337;SHT30;53139;45.576;5.304;2022-07-22T19:08:25;30.63;38.07
66337;SHT30;53139;45.576;5.304;2022-07-22T19:11:27;30.39;40.39
66337;SHT30;53139;45.576;5.304;2022-07-22T19:14:28;30.35;41.60
66337;SHT30;53139;45.576;5.304;2022-07-22T19:17:28;30.37;41.34
66337;SHT30;53139;45.576;5.304;2022-07-22T19:20:29;30.41;40.23
66337;SHT30;53139;45.576;5.304;2022-07-22T19:23:29;30.26;41.57
66337;SHT30;53139;45.576;5.304;2022-07-22T19:26:29;30.28;42.38
66337;SHT30;53139;45.576;5.304;2022-07-22T19:29:31;30.19;42.75
66337;SHT30;53139;45.576;5.304;2022-07-22T19:32:31;30.09;43.30
66337;SHT30;53139;45.576;5.304;2022-07-22T19:35:32;30.01;44.19
66337;SHT30;53139;45.576;5.304;2022-07-22T19:38:33;30.02;44.17
66337;SHT30;53139;45.576;5.304;2022-07-22T19:41:33;29.99;44.87
66337;SHT30;53139;45.576;5.304;2022-07-22T19:44:33;29.89;45.60
66337;SHT30;53139;45.576;5.304;2022-07-22T19:47:36;29.89;45.68
66337;SHT30;53139;45.576;5.304;2022-07-22T19:50:36;29.73;46.24
66337;SHT30;53139;45.576;5.304;2022-07-22T19:53:37;29.54;47.20
66337;SHT30;53139;45.576;5.304;2022-07-22T19:56:39;29.61;46.24
66337;SHT30;53139;45.576;5.304;2022-07-22T19:59:39;29.53;46.54
66337;SHT30;53139;45.576;5.304;2022-07-22T20:02:40;29.36;48.04
66337;SHT30;53139;45.576;5.304;2022-07-22T20:05:40;28.87;50.21
66337;SHT30;53139;45.576;5.304;2022-07-22T20:08:41;28.85;49.10
66337;SHT30;53139;45.576;5.304;2022-07-22T20:11:42;28.88;48.38
66337;SHT30;53139;45.576;5.304;2022-07-22T20:14:43;28.65;49.33
66337;SHT30;53139;45.576;5.304;2022-07-22T20:17:43;28.71;48.80
66337;SHT30;53139;45.576;5.304;2022-07-22T20:20:44;28.63;49.07
66337;SHT30;53139;45.576;5.304;2022-07-22T20:23:44;28.67;48.75
66337;SHT30;53139;45.576;5.304;2022-07-22T20:26:47;28.57;49.02
66337;SHT30;53139;45.576;5.304;2022-07-22T20:29:48;28.54;48.48
66337;SHT30;53139;45.576;5.304;2022-07-22T20:32:48;28.44;48.98
66337;SHT30;53139;45.576;5.304;2022-07-22T20:35:49;28.46;48.67
66337;SHT30;53139;45.576;5.304;2022-07-22T20:38:49;28.40;49.14
66337;SHT30;53139;45.576;5.304;2022-07-22T20:41:50;28.14;50.73
66337;SHT30;53139;45.576;5.304;2022-07-22T20:44:50;27.96;50.80
66337;SHT30;53139;45.576;5.304;2022-07-22T20:47:51;28.14;49.57
66337;SHT30;53139;45.576;5.304;2022-07-22T20:50:52;28.08;49.71
66337;SHT30;53139;45.576;5.304;2022-07-22T20:53:52;27.86;50.64
66337;SHT30;53139;45.576;5.304;2022-07-22T20:56:56;27.66;52.13
66337;SHT30;53139;45.576;5.304;2022-07-22T20:59:56;27.72;50.76
66337;SHT30;53139;45.576;5.304;2022-07-22T21:02:57;27.84;50.60
66337;SHT30;53139;45.576;5.304;2022-07-22T21:05:57;27.78;50.86
66337;SHT30;53139;45.576;5.304;2022-07-22T21:08:57;27.75;51.66
66337;SHT30;53139;45.576;5.304;2022-07-22T21:11:58;27.80;50.83
66337;SHT30;53139;45.576;5.304;2022-07-22T21:15:01;27.69;51.66